Aviation Digital Data Service (ADDS)

Output produced by TAFs form (1739 UTC 21 April 2018)
found at http://aviationweather.gov/adds/tafs/
 
RJBB 211700Z AUTO 11002KT 9999 NCD 16/14 Q1020 NOSIG
TAF RJBB 211705Z 2118/2300 08004KT CAVOK 
     BECMG 2122/2200 24008KT